Phelan, California
Current Conditions -  °F | °C
As of 6:55 AM on Wednesday 26 Nov 2014 (Local Time) from KGXA Reporting Station
Clear Clear  
Wind Chill: 33°   Ceiling: Unl
Heat Index: 38°   Visibility: 10mi
Dew Point:   Wind: 6mph
Humidity: 28%   Direction: 160°SSE
Pressure: 30.37"   Gusts: NA
Location:  34.43°N, 117.57°W
Report Text: KGXA 261455Z AUTO 16005KT 10SM CLR 03/M14 A3037 RMK AO2 SLP317 T00321139 53003 PWINO TSNO $
Loading
Personal Weather Stations






























Interactive Weather Map New forecast layout! Learn more

10-Day Weather Forecast

Advertisements
Track Severe Weather on mobile